sensor_id;sensor_type;location;lat;lon;timestamp;pressure;altitude;pressure_sealevel;temperature;humidity
67373;BME280;54257;54.496;18.412;2022-09-21T00:01:24;100233.90;;;10.69;82.61
67373;BME280;54257;54.496;18.412;2022-09-21T00:03:55;100233.02;;;10.67;82.71
67373;BME280;54257;54.496;18.412;2022-09-21T00:06:24;100235.48;;;10.63;82.64
67373;BME280;54257;54.496;18.412;2022-09-21T00:08:52;100238.35;;;10.60;82.61
67373;BME280;54257;54.496;18.412;2022-09-21T00:11:26;100240.00;;;10.58;82.62
67373;BME280;54257;54.496;18.412;2022-09-21T00:14:00;100243.02;;;10.56;82.71
67373;BME280;54257;54.496;18.412;2022-09-21T00:16:30;100245.02;;;10.53;82.66
67373;BME280;54257;54.496;18.412;2022-09-21T00:18:58;100251.07;;;10.49;82.77
67373;BME280;54257;54.496;18.412;2022-09-21T00:21:26;100251.71;;;10.47;82.77
67373;BME280;54257;54.496;18.412;2022-09-21T00:23:54;100258.01;;;10.45;82.85
67373;BME280;54257;54.496;18.412;2022-09-21T00:26:24;100259.48;;;10.42;82.77
67373;BME280;54257;54.496;18.412;2022-09-21T00:28:57;100260.30;;;10.42;82.78
67373;BME280;54257;54.496;18.412;2022-09-21T00:31:25;100262.16;;;10.41;82.81
67373;BME280;54257;54.496;18.412;2022-09-21T00:33:53;100264.16;;;10.38;82.84
67373;BME280;54257;54.496;18.412;2022-09-21T00:36:23;100263.11;;;10.37;82.84
67373;BME280;54257;54.496;18.412;2022-09-21T00:38:56;100262.08;;;10.36;82.69
67373;BME280;54257;54.496;18.412;2022-09-21T00:41:24;100258.66;;;10.35;82.64
67373;BME280;54257;54.496;18.412;2022-09-21T00:44:30;100257.42;;;10.34;82.58
67373;BME280;54257;54.496;18.412;2022-09-21T00:47:05;100258.19;;;10.30;82.49
67373;BME280;54257;54.496;18.412;2022-09-21T00:49:35;100258.80;;;10.27;82.40
67373;BME280;54257;54.496;18.412;2022-09-21T00:52:04;100258.05;;;10.24;82.36
67373;BME280;54257;54.496;18.412;2022-09-21T00:54:37;100258.98;;;10.21;82.37
67373;BME280;54257;54.496;18.412;2022-09-21T00:57:07;100263.48;;;10.17;82.33
67373;BME280;54257;54.496;18.412;2022-09-21T00:59:36;100263.39;;;10.13;82.36
67373;BME280;54257;54.496;18.412;2022-09-21T01:02:05;100267.53;;;10.08;82.38
67373;BME280;54257;54.496;18.412;2022-09-21T01:04:33;100265.56;;;10.03;82.40
67373;BME280;54257;54.496;18.412;2022-09-21T01:07:03;100267.21;;;10.01;82.58
67373;BME280;54257;54.496;18.412;2022-09-21T01:09:31;100265.16;;;10.01;82.64
67373;BME280;54257;54.496;18.412;2022-09-21T01:12:14;100263.81;;;10.02;82.75
67373;BME280;54257;54.496;18.412;2022-09-21T01:17:34;100267.16;;;10.06;83.12
67373;BME280;54257;54.496;18.412;2022-09-21T01:20:29;100268.80;;;10.10;83.35
67373;BME280;54257;54.496;18.412;2022-09-21T01:23:13;100269.58;;;10.15;83.45
67373;BME280;54257;54.496;18.412;2022-09-21T01:29:12;100261.09;;;10.30;83.59
67373;BME280;54257;54.496;18.412;2022-09-21T01:32:12;100259.54;;;10.37;83.60
67373;BME280;54257;54.496;18.412;2022-09-21T01:37:26;100263.13;;;10.45;83.40
67373;BME280;54257;54.496;18.412;2022-09-21T01:40:00;100269.52;;;10.49;83.34
67373;BME280;54257;54.496;18.412;2022-09-21T01:42:29;100271.33;;;10.53;83.10
67373;BME280;54257;54.496;18.412;2022-09-21T01:45:02;100270.46;;;10.52;82.91
67373;BME280;54257;54.496;18.412;2022-09-21T01:47:32;100270.59;;;10.50;82.79
67373;BME280;54257;54.496;18.412;2022-09-21T01:50:05;100269.59;;;10.44;82.90
67373;BME280;54257;54.496;18.412;2022-09-21T01:52:44;100271.20;;;10.39;82.89
67373;BME280;54257;54.496;18.412;2022-09-21T01:55:23;100272.98;;;10.35;82.94
67373;BME280;54257;54.496;18.412;2022-09-21T02:00:29;100286.41;;;10.25;82.99
67373;BME280;54257;54.496;18.412;2022-09-21T02:03:03;100283.50;;;10.19;82.85
67373;BME280;54257;54.496;18.412;2022-09-21T02:05:32;100282.46;;;10.11;83.06
67373;BME280;54257;54.496;18.412;2022-09-21T02:07:59;100281.31;;;10.06;83.15
67373;BME280;54257;54.496;18.412;2022-09-21T02:10:36;100279.64;;;10.00;83.46
67373;BME280;54257;54.496;18.412;2022-09-21T02:13:07;100279.50;;;9.94;83.58
67373;BME280;54257;54.496;18.412;2022-09-21T02:20:58;100282.46;;;9.83;84.06
67373;BME280;54257;54.496;18.412;2022-09-21T02:23:34;100285.30;;;9.80;84.13
67373;BME280;54257;54.496;18.412;2022-09-21T02:26:14;100285.27;;;9.79;84.43
67373;BME280;54257;54.496;18.412;2022-09-21T02:28:50;100283.03;;;9.77;84.61
67373;BME280;54257;54.496;18.412;2022-09-21T02:31:27;100284.66;;;9.76;84.62
67373;BME280;54257;54.496;18.412;2022-09-21T02:34:10;100287.20;;;9.75;84.82
67373;BME280;54257;54.496;18.412;2022-09-21T02:36:47;100287.38;;;9.75;84.91
67373;BME280;54257;54.496;18.412;2022-09-21T02:39:18;100296.77;;;9.76;85.28
67373;BME280;54257;54.496;18.412;2022-09-21T02:42:10;100294.96;;;9.78;85.58
67373;BME280;54257;54.496;18.412;2022-09-21T02:44:51;100294.33;;;9.79;85.94
67373;BME280;54257;54.496;18.412;2022-09-21T02:47:21;100286.52;;;9.82;85.72
67373;BME280;54257;54.496;18.412;2022-09-21T02:49:57;100294.50;;;9.87;85.64
67373;BME280;54257;54.496;18.412;2022-09-21T02:52:26;100290.40;;;9.93;85.48
67373;BME280;54257;54.496;18.412;2022-09-21T02:54:56;100292.59;;;10.00;85.52
67373;BME280;54257;54.496;18.412;2022-09-21T02:57:24;100288.83;;;10.06;85.49
67373;BME280;54257;54.496;18.412;2022-09-21T02:59:52;100289.49;;;10.12;85.35
67373;BME280;54257;54.496;18.412;2022-09-21T03:02:19;100287.10;;;10.19;85.27
67373;BME280;54257;54.496;18.412;2022-09-21T03:04:46;100288.00;;;10.27;85.24
67373;BME280;54257;54.496;18.412;2022-09-21T03:07:15;100288.64;;;10.33;85.10
67373;BME280;54257;54.496;18.412;2022-09-21T03:09:43;100288.95;;;10.39;85.00
67373;BME280;54257;54.496;18.412;2022-09-21T03:12:10;100292.95;;;10.43;84.71
67373;BME280;54257;54.496;18.412;2022-09-21T03:14:37;100295.06;;;10.45;84.62
67373;BME280;54257;54.496;18.412;2022-09-21T03:17:04;100298.20;;;10.49;84.66
67373;BME280;54257;54.496;18.412;2022-09-21T03:19:31;100299.12;;;10.51;84.37
67373;BME280;54257;54.496;18.412;2022-09-21T03:21:58;100302.05;;;10.52;84.22
67373;BME280;54257;54.496;18.412;2022-09-21T03:24:25;100305.64;;;10.52;84.03
67373;BME280;54257;54.496;18.412;2022-09-21T03:27:19;100304.43;;;10.51;83.92
67373;BME280;54257;54.496;18.412;2022-09-21T03:29:47;100308.11;;;10.49;83.71
67373;BME280;54257;54.496;18.412;2022-09-21T03:32:15;100313.54;;;10.46;83.64
67373;BME280;54257;54.496;18.412;2022-09-21T03:34:42;100310.91;;;10.43;83.49
67373;BME280;54257;54.496;18.412;2022-09-21T03:37:09;100311.66;;;10.39;83.36
67373;BME280;54257;54.496;18.412;2022-09-21T03:39:36;100314.17;;;10.37;83.36
67373;BME280;54257;54.496;18.412;2022-09-21T03:42:04;100310.59;;;10.37;83.28
67373;BME280;54257;54.496;18.412;2022-09-21T03:44:31;100311.79;;;10.37;83.14
67373;BME280;54257;54.496;18.412;2022-09-21T03:46:59;100320.52;;;10.39;83.05
67373;BME280;54257;54.496;18.412;2022-09-21T03:49:26;100324.27;;;10.38;82.87
67373;BME280;54257;54.496;18.412;2022-09-21T03:51:53;100324.27;;;10.38;82.69
67373;BME280;54257;54.496;18.412;2022-09-21T03:54:21;100327.15;;;10.37;82.70
67373;BME280;54257;54.496;18.412;2022-09-21T03:56:48;100327.78;;;10.35;82.64
67373;BME280;54257;54.496;18.412;2022-09-21T03:59:16;100333.36;;;10.33;82.53
67373;BME280;54257;54.496;18.412;2022-09-21T04:01:43;100334.85;;;10.30;82.46
67373;BME280;54257;54.496;18.412;2022-09-21T04:04:10;100338.88;;;10.27;82.46
67373;BME280;54257;54.496;18.412;2022-09-21T04:06:36;100338.46;;;10.25;82.44
67373;BME280;54257;54.496;18.412;2022-09-21T04:09:03;100339.30;;;10.24;82.50
67373;BME280;54257;54.496;18.412;2022-09-21T04:11:30;100341.86;;;10.25;82.53
67373;BME280;54257;54.496;18.412;2022-09-21T04:13:59;100347.33;;;10.24;82.39
67373;BME280;54257;54.496;18.412;2022-09-21T04:16:26;100349.02;;;10.23;82.45
67373;BME280;54257;54.496;18.412;2022-09-21T04:18:54;100350.28;;;10.20;82.48
67373;BME280;54257;54.496;18.412;2022-09-21T04:21:21;100349.41;;;10.19;82.64
67373;BME280;54257;54.496;18.412;2022-09-21T04:23:48;100357.52;;;10.17;82.68
67373;BME280;54257;54.496;18.412;2022-09-21T04:26:27;100359.96;;;10.12;82.91
67373;BME280;54257;54.496;18.412;2022-09-21T04:28:55;100354.73;;;10.07;83.01
67373;BME280;54257;54.496;18.412;2022-09-21T04:31:24;100355.55;;;10.06;83.15
67373;BME280;54257;54.496;18.412;2022-09-21T04:33:53;100354.69;;;10.05;83.27
67373;BME280;54257;54.496;18.412;2022-09-21T04:36:21;100352.13;;;10.05;83.47
67373;BME280;54257;54.496;18.412;2022-09-21T04:38:49;100351.63;;;10.05;83.52
67373;BME280;54257;54.496;18.412;2022-09-21T04:41:16;100350.95;;;10.06;83.68
67373;BME280;54257;54.496;18.412;2022-09-21T04:43:46;100346.35;;;10.06;83.64
67373;BME280;54257;54.496;18.412;2022-09-21T04:46:16;100345.48;;;10.05;83.80
67373;BME280;54257;54.496;18.412;2022-09-21T04:48:43;100347.69;;;10.05;83.79
67373;BME280;54257;54.496;18.412;2022-09-21T04:51:11;100345.64;;;10.05;83.83
67373;BME280;54257;54.496;18.412;2022-09-21T04:53:39;100346.15;;;10.05;83.91
67373;BME280;54257;54.496;18.412;2022-09-21T04:56:08;100346.98;;;10.04;83.88
67373;BME280;54257;54.496;18.412;2022-09-21T04:58:36;100349.86;;;10.03;83.92
67373;BME280;54257;54.496;18.412;2022-09-21T05:01:03;100355.47;;;10.02;83.96
67373;BME280;54257;54.496;18.412;2022-09-21T05:03:32;100357.54;;;10.02;84.03
67373;BME280;54257;54.496;18.412;2022-09-21T05:05:59;100364.34;;;10.02;84.07
67373;BME280;54257;54.496;18.412;2022-09-21T05:08:26;100367.46;;;10.04;84.11
67373;BME280;54257;54.496;18.412;2022-09-21T05:11:15;100371.36;;;10.03;84.35
67373;BME280;54257;54.496;18.412;2022-09-21T05:13:45;100370.79;;;10.01;84.45
67373;BME280;54257;54.496;18.412;2022-09-21T05:16:14;100370.04;;;9.98;84.60
67373;BME280;54257;54.496;18.412;2022-09-21T05:18:42;100368.86;;;9.99;84.79
67373;BME280;54257;54.496;18.412;2022-09-21T05:21:11;100366.98;;;9.99;84.93
67373;BME280;54257;54.496;18.412;2022-09-21T05:23:39;100370.27;;;10.01;85.09
67373;BME280;54257;54.496;18.412;2022-09-21T05:26:07;100369.31;;;10.03;85.11
67373;BME280;54257;54.496;18.412;2022-09-21T05:28:34;100373.30;;;10.05;85.15
67373;BME280;54257;54.496;18.412;2022-09-21T05:33:40;100370.22;;;10.12;85.32
67373;BME280;54257;54.496;18.412;2022-09-21T05:39:11;100387.48;;;10.20;85.49
67373;BME280;54257;54.496;18.412;2022-09-21T05:41:38;100389.92;;;10.21;85.36
67373;BME280;54257;54.496;18.412;2022-09-21T05:44:06;100395.63;;;10.23;85.29
67373;BME280;54257;54.496;18.412;2022-09-21T05:46:39;100395.98;;;10.25;85.39
67373;BME280;54257;54.496;18.412;2022-09-21T05:49:35;100397.21;;;10.25;85.42
67373;BME280;54257;54.496;18.412;2022-09-21T05:52:39;100398.31;;;10.28;85.59
67373;BME280;54257;54.496;18.412;2022-09-21T05:55:26;100402.10;;;10.29;85.64
67373;BME280;54257;54.496;18.412;2022-09-21T05:58:21;100400.88;;;10.29;85.64
67373;BME280;54257;54.496;18.412;2022-09-21T06:03:58;100403.60;;;10.28;85.82
67373;BME280;54257;54.496;18.412;2022-09-21T06:06:25;100402.83;;;10.31;85.95
67373;BME280;54257;54.496;18.412;2022-09-21T06:08:52;100406.19;;;10.35;85.91
67373;BME280;54257;54.496;18.412;2022-09-21T06:11:19;100404.22;;;10.40;86.11
67373;BME280;54257;54.496;18.412;2022-09-21T06:13:46;100405.17;;;10.44;86.07
67373;BME280;54257;54.496;18.412;2022-09-21T06:16:16;100407.19;;;10.49;86.10
67373;BME280;54257;54.496;18.412;2022-09-21T06:18:43;100403.38;;;10.54;86.09
67373;BME280;54257;54.496;18.412;2022-09-21T06:21:10;100405.23;;;10.60;86.16
67373;BME280;54257;54.496;18.412;2022-09-21T06:23:37;100403.32;;;10.66;86.32
67373;BME280;54257;54.496;18.412;2022-09-21T06:26:05;100402.27;;;10.73;86.35
67373;BME280;54257;54.496;18.412;2022-09-21T06:28:32;100405.14;;;10.78;86.37
67373;BME280;54257;54.496;18.412;2022-09-21T06:30:59;100405.27;;;10.84;86.45
67373;BME280;54257;54.496;18.412;2022-09-21T06:33:26;100403.34;;;10.90;86.45
67373;BME280;54257;54.496;18.412;2022-09-21T06:35:58;100406.36;;;10.95;86.45
67373;BME280;54257;54.496;18.412;2022-09-21T06:38:26;100404.06;;;10.99;86.45
67373;BME280;54257;54.496;18.412;2022-09-21T06:40:59;100409.65;;;11.04;86.42
67373;BME280;54257;54.496;18.412;2022-09-21T06:43:27;100406.89;;;11.11;86.31
67373;BME280;54257;54.496;18.412;2022-09-21T06:45:56;100413.52;;;11.17;86.36
67373;BME280;54257;54.496;18.412;2022-09-21T06:48:24;100414.47;;;11.22;86.16
67373;BME280;54257;54.496;18.412;2022-09-21T06:50:56;100418.83;;;11.25;85.91
67373;BME280;54257;54.496;18.412;2022-09-21T06:53:26;100418.17;;;11.27;85.66
67373;BME280;54257;54.496;18.412;2022-09-21T06:55:58;100420.04;;;11.27;85.34
67373;BME280;54257;54.496;18.412;2022-09-21T06:58:26;100420.73;;;11.27;85.25
67373;BME280;54257;54.496;18.412;2022-09-21T07:00:53;100421.09;;;11.36;86.26
67373;BME280;54257;54.496;18.412;2022-09-21T07:03:21;100421.34;;;11.91;89.87
67373;BME280;54257;54.496;18.412;2022-09-21T07:05:48;100423.51;;;12.68;91.95
67373;BME280;54257;54.496;18.412;2022-09-21T07:08:15;100419.20;;;13.25;90.27
67373;BME280;54257;54.496;18.412;2022-09-21T07:10:44;100422.04;;;13.72;89.32
67373;BME280;54257;54.496;18.412;2022-09-21T07:13:11;100419.54;;;14.31;87.54
67373;BME280;54257;54.496;18.412;2022-09-21T07:15:38;100420.17;;;14.88;85.88
67373;BME280;54257;54.496;18.412;2022-09-21T07:18:12;100419.25;;;15.42;83.72
67373;BME280;54257;54.496;18.412;2022-09-21T07:20:40;100417.71;;;15.87;80.54
67373;BME280;54257;54.496;18.412;2022-09-21T07:23:11;100422.95;;;16.29;78.92
67373;BME280;54257;54.496;18.412;2022-09-21T07:25:42;100420.55;;;16.73;77.49
67373;BME280;54257;54.496;18.412;2022-09-21T07:28:12;100419.80;;;17.03;75.06
67373;BME280;54257;54.496;18.412;2022-09-21T07:30:40;100422.62;;;17.44;74.05
67373;BME280;54257;54.496;18.412;2022-09-21T07:33:07;100421.62;;;17.80;72.82
67373;BME280;54257;54.496;18.412;2022-09-21T07:35:34;100422.63;;;18.13;70.41
67373;BME280;54257;54.496;18.412;2022-09-21T07:38:04;100422.54;;;18.23;68.63
67373;BME280;54257;54.496;18.412;2022-09-21T07:40:33;100421.61;;;18.34;67.17
67373;BME280;54257;54.496;18.412;2022-09-21T07:43:01;100419.99;;;18.40;66.68
67373;BME280;54257;54.496;18.412;2022-09-21T07:45:29;100425.23;;;18.58;66.67
67373;BME280;54257;54.496;18.412;2022-09-21T07:48:06;100424.16;;;18.84;65.91
67373;BME280;54257;54.496;18.412;2022-09-21T07:50:34;100421.88;;;19.03;64.29
67373;BME280;54257;54.496;18.412;2022-09-21T07:53:02;100421.81;;;19.09;62.87
67373;BME280;54257;54.496;18.412;2022-09-21T07:55:29;100420.64;;;19.20;61.06
67373;BME280;54257;54.496;18.412;2022-09-21T07:57:56;100418.11;;;19.29;61.85
67373;BME280;54257;54.496;18.412;2022-09-21T08:00:42;100416.57;;;19.58;62.74
67373;BME280;54257;54.496;18.412;2022-09-21T08:03:09;100419.63;;;19.88;61.01
67373;BME280;54257;54.496;18.412;2022-09-21T08:05:36;100422.17;;;20.05;60.50
67373;BME280;54257;54.496;18.412;2022-09-21T08:08:03;100421.76;;;20.21;59.46
67373;BME280;54257;54.496;18.412;2022-09-21T08:10:30;100419.64;;;20.34;59.53
67373;BME280;54257;54.496;18.412;2022-09-21T08:12:58;100421.88;;;20.48;58.19
67373;BME280;54257;54.496;18.412;2022-09-21T08:15:25;100426.31;;;20.52;56.48
67373;BME280;54257;54.496;18.412;2022-09-21T08:17:53;100424.59;;;20.52;57.20
67373;BME280;54257;54.496;18.412;2022-09-21T08:20:20;100422.53;;;20.62;56.18
67373;BME280;54257;54.496;18.412;2022-09-21T08:22:47;100426.97;;;20.65;55.31
67373;BME280;54257;54.496;18.412;2022-09-21T08:25:15;100422.51;;;20.72;54.47
67373;BME280;54257;54.496;18.412;2022-09-21T08:27:42;100418.22;;;20.69;54.35
67373;BME280;54257;54.496;18.412;2022-09-21T08:30:09;100419.29;;;20.87;54.87
67373;BME280;54257;54.496;18.412;2022-09-21T08:32:39;100417.58;;;21.04;53.49
67373;BME280;54257;54.496;18.412;2022-09-21T08:35:07;100419.86;;;20.74;51.17
67373;BME280;54257;54.496;18.412;2022-09-21T08:37:35;100432.17;;;20.21;51.47
67373;BME280;54257;54.496;18.412;2022-09-21T08:40:04;100431.83;;;19.85;52.82
67373;BME280;54257;54.496;18.412;2022-09-21T08:42:53;100437.20;;;19.59;53.73
67373;BME280;54257;54.496;18.412;2022-09-21T08:45:25;100432.08;;;19.49;54.86
67373;BME280;54257;54.496;18.412;2022-09-21T08:47:59;100432.48;;;19.61;54.98
67373;BME280;54257;54.496;18.412;2022-09-21T08:51:03;100432.45;;;19.77;53.80
67373;BME280;54257;54.496;18.412;2022-09-21T08:53:43;100434.54;;;20.02;54.68
67373;BME280;54257;54.496;18.412;2022-09-21T08:56:13;100435.52;;;20.29;53.97
67373;BME280;54257;54.496;18.412;2022-09-21T08:58:41;100426.48;;;20.63;52.22
67373;BME280;54257;54.496;18.412;2022-09-21T09:09:59;100434.77;;;20.44;49.92
67373;BME280;54257;54.496;18.412;2022-09-21T09:18:22;100433.40;;;19.84;51.54
67373;BME280;54257;54.496;18.412;2022-09-21T09:20:57;100438.36;;;19.46;50.40
67373;BME280;54257;54.496;18.412;2022-09-21T09:23:32;100437.70;;;19.12;50.76
67373;BME280;54257;54.496;18.412;2022-09-21T09:26:26;100443.34;;;18.85;51.65
67373;BME280;54257;54.496;18.412;2022-09-21T09:29:02;100444.39;;;18.65;52.55
67373;BME280;54257;54.496;18.412;2022-09-21T09:31:34;100442.61;;;18.47;52.92
67373;BME280;54257;54.496;18.412;2022-09-21T09:36:35;100440.38;;;18.22;53.68
67373;BME280;54257;54.496;18.412;2022-09-21T09:39:09;100444.41;;;18.14;54.02
67373;BME280;54257;54.496;18.412;2022-09-21T09:50:08;100444.14;;;17.65;54.29
67373;BME280;54257;54.496;18.412;2022-09-21T09:52:36;100447.64;;;17.53;54.30
67373;BME280;54257;54.496;18.412;2022-09-21T09:57:46;100450.46;;;17.34;54.62
67373;BME280;54257;54.496;18.412;2022-09-21T10:00:17;100451.38;;;17.18;54.99
67373;BME280;54257;54.496;18.412;2022-09-21T10:02:52;100452.24;;;17.10;55.52
67373;BME280;54257;54.496;18.412;2022-09-21T10:05:31;100452.60;;;17.14;56.08
67373;BME280;54257;54.496;18.412;2022-09-21T10:08:00;100454.83;;;17.15;55.97
67373;BME280;54257;54.496;18.412;2022-09-21T10:10:40;100453.63;;;17.10;56.18
67373;BME280;54257;54.496;18.412;2022-09-21T10:15:44;100457.64;;;16.90;56.49
67373;BME280;54257;54.496;18.412;2022-09-21T10:18:23;100462.14;;;16.77;56.49
67373;BME280;54257;54.496;18.412;2022-09-21T10:21:00;100464.39;;;16.79;57.34
67373;BME280;54257;54.496;18.412;2022-09-21T10:23:29;100462.83;;;16.84;57.20
67373;BME280;54257;54.496;18.412;2022-09-21T10:26:11;100462.27;;;17.02;57.37
67373;BME280;54257;54.496;18.412;2022-09-21T10:28:58;100458.27;;;17.25;56.92
67373;BME280;54257;54.496;18.412;2022-09-21T10:31:28;100459.37;;;17.58;57.05
67373;BME280;54257;54.496;18.412;2022-09-21T10:34:14;100457.67;;;17.93;55.10
67373;BME280;54257;54.496;18.412;2022-09-21T10:36:49;100457.52;;;17.88;53.74
67373;BME280;54257;54.496;18.412;2022-09-21T10:41:53;100462.97;;;17.68;54.42
67373;BME280;54257;54.496;18.412;2022-09-21T10:44:25;100461.48;;;17.42;53.16
67373;BME280;54257;54.496;18.412;2022-09-21T10:46:54;100464.84;;;17.19;54.09
67373;BME280;54257;54.496;18.412;2022-09-21T10:49:26;100462.77;;;17.14;54.27
67373;BME280;54257;54.496;18.412;2022-09-21T10:51:57;100460.45;;;17.42;55.34
67373;BME280;54257;54.496;18.412;2022-09-21T10:54:30;100457.23;;;17.78;54.19
67373;BME280;54257;54.496;18.412;2022-09-21T10:57:13;100456.02;;;17.79;53.13
67373;BME280;54257;54.496;18.412;2022-09-21T10:59:42;100460.71;;;17.65;53.23
67373;BME280;54257;54.496;18.412;2022-09-21T11:07:36;100460.02;;;17.12;54.27
67373;BME280;54257;54.496;18.412;2022-09-21T11:10:30;100459.86;;;17.06;54.15
67373;BME280;54257;54.496;18.412;2022-09-21T11:15:50;100460.37;;;17.10;55.38
67373;BME280;54257;54.496;18.412;2022-09-21T11:21:12;100460.12;;;17.40;55.23
67373;BME280;54257;54.496;18.412;2022-09-21T11:38:04;100462.95;;;18.59;51.71
67373;BME280;54257;54.496;18.412;2022-09-21T11:40:44;100467.19;;;18.21;51.35
67373;BME280;54257;54.496;18.412;2022-09-21T11:59:18;100473.89;;;17.99;52.93
67373;BME280;54257;54.496;18.412;2022-09-21T12:14:06;100477.58;;;17.31;55.31
67373;BME280;54257;54.496;18.412;2022-09-21T12:16:10;100481.90;;;17.31;55.25
67373;BME280;54257;54.496;18.412;2022-09-21T12:21:34;100470.46;;;17.93;55.84
67373;BME280;54257;54.496;18.412;2022-09-21T12:24:11;100472.91;;;18.18;54.31
67373;BME280;54257;54.496;18.412;2022-09-21T12:26:43;100472.39;;;18.45;53.84
67373;BME280;54257;54.496;18.412;2022-09-21T12:32:10;100471.85;;;18.47;51.92
67373;BME280;54257;54.496;18.412;2022-09-21T12:34:45;100474.27;;;18.22;51.85
67373;BME280;54257;54.496;18.412;2022-09-21T12:37:20;100466.92;;;18.09;51.90
67373;BME280;54257;54.496;18.412;2022-09-21T12:42:30;100467.36;;;17.92;53.63
67373;BME280;54257;54.496;18.412;2022-09-21T12:48:34;100467.27;;;17.69;54.00
67373;BME280;54257;54.496;18.412;2022-09-21T12:51:28;100474.06;;;17.51;53.61
67373;BME280;54257;54.496;18.412;2022-09-21T12:53:59;100472.30;;;17.66;54.42
67373;BME280;54257;54.496;18.412;2022-09-21T12:56:45;100475.33;;;17.89;53.48
67373;BME280;54257;54.496;18.412;2022-09-21T12:59:36;100475.73;;;17.75;52.58
67373;BME280;54257;54.496;18.412;2022-09-21T13:02:41;100473.02;;;17.54;53.04
67373;BME280;54257;54.496;18.412;2022-09-21T13:13:37;100472.81;;;17.71;54.71
67373;BME280;54257;54.496;18.412;2022-09-21T13:16:06;100473.23;;;17.95;53.74
67373;BME280;54257;54.496;18.412;2022-09-21T13:18:35;100476.03;;;18.18;53.10
67373;BME280;54257;54.496;18.412;2022-09-21T13:21:19;100470.36;;;18.38;52.22
67373;BME280;54257;54.496;18.412;2022-09-21T13:24:06;100466.53;;;18.64;52.65
67373;BME280;54257;54.496;18.412;2022-09-21T13:26:40;100461.84;;;18.89;52.38
67373;BME280;54257;54.496;18.412;2022-09-21T13:34:27;100465.70;;;19.00;48.02
67373;BME280;54257;54.496;18.412;2022-09-21T13:44:55;100473.16;;;18.58;49.72
67373;BME280;54257;54.496;18.412;2022-09-21T13:47:35;100476.64;;;18.32;50.08
67373;BME280;54257;54.496;18.412;2022-09-21T13:52:50;100473.98;;;17.80;51.32
67373;BME280;54257;54.496;18.412;2022-09-21T13:55:27;100478.70;;;17.67;52.12
67373;BME280;54257;54.496;18.412;2022-09-21T13:57:57;100480.46;;;17.49;52.35
67373;BME280;54257;54.496;18.412;2022-09-21T14:01:21;100484.14;;;17.36;52.94
67373;BME280;54257;54.496;18.412;2022-09-21T14:03:41;100477.38;;;17.46;52.94
67373;BME280;54257;54.496;18.412;2022-09-21T14:06:21;100476.66;;;17.50;53.36
67373;BME280;54257;54.496;18.412;2022-09-21T14:08:57;100475.07;;;17.62;53.73
67373;BME280;54257;54.496;18.412;2022-09-21T14:11:32;100472.78;;;17.78;53.54
67373;BME280;54257;54.496;18.412;2022-09-21T14:24:40;100468.34;;;18.30;51.66
67373;BME280;54257;54.496;18.412;2022-09-21T14:27:19;100470.34;;;18.41;51.72
67373;BME280;54257;54.496;18.412;2022-09-21T14:32:41;100474.23;;;18.01;50.84
67373;BME280;54257;54.496;18.412;2022-09-21T14:35:19;100473.86;;;17.66;51.59
67373;BME280;54257;54.496;18.412;2022-09-21T14:37:59;100477.54;;;17.45;52.56
67373;BME280;54257;54.496;18.412;2022-09-21T14:40:33;100487.77;;;17.31;54.26
67373;BME280;54257;54.496;18.412;2022-09-21T14:43:40;100489.37;;;17.13;55.26
67373;BME280;54257;54.496;18.412;2022-09-21T14:51:48;100488.48;;;16.39;57.22
67373;BME280;54257;54.496;18.412;2022-09-21T14:54:26;100486.36;;;16.16;57.49
67373;BME280;54257;54.496;18.412;2022-09-21T15:00:15;100490.40;;;15.81;58.71
67373;BME280;54257;54.496;18.412;2022-09-21T15:03:04;100488.29;;;15.70;59.31
67373;BME280;54257;54.496;18.412;2022-09-21T15:05:42;100487.69;;;15.57;59.48
67373;BME280;54257;54.496;18.412;2022-09-21T15:11:19;100493.39;;;15.30;60.11
67373;BME280;54257;54.496;18.412;2022-09-21T15:17:21;100498.38;;;15.03;60.60
67373;BME280;54257;54.496;18.412;2022-09-21T15:19:49;100499.01;;;14.94;61.03
67373;BME280;54257;54.496;18.412;2022-09-21T15:22:20;100500.16;;;14.88;61.14
67373;BME280;54257;54.496;18.412;2022-09-21T15:24:53;100500.27;;;14.81;61.39
67373;BME280;54257;54.496;18.412;2022-09-21T15:27:23;100503.31;;;14.74;61.34
67373;BME280;54257;54.496;18.412;2022-09-21T15:29:54;100503.92;;;14.65;61.38
67373;BME280;54257;54.496;18.412;2022-09-21T15:32:38;100499.23;;;14.59;61.65
67373;BME280;54257;54.496;18.412;2022-09-21T15:37:43;100506.50;;;14.47;61.70
67373;BME280;54257;54.496;18.412;2022-09-21T15:40:16;100503.18;;;14.43;61.95
67373;BME280;54257;54.496;18.412;2022-09-21T15:45:50;100505.61;;;14.29;62.00
67373;BME280;54257;54.496;18.412;2022-09-21T15:48:32;100507.28;;;14.23;62.24
67373;BME280;54257;54.496;18.412;2022-09-21T15:56:50;100511.37;;;14.05;63.05
67373;BME280;54257;54.496;18.412;2022-09-21T15:59:19;100509.45;;;14.02;63.22
67373;BME280;54257;54.496;18.412;2022-09-21T16:01:51;100512.83;;;13.98;63.22
67373;BME280;54257;54.496;18.412;2022-09-21T16:04:21;100513.48;;;13.95;63.53
67373;BME280;54257;54.496;18.412;2022-09-21T16:07:04;100517.37;;;13.90;63.67
67373;BME280;54257;54.496;18.412;2022-09-21T16:09:45;100515.06;;;13.84;63.78
67373;BME280;54257;54.496;18.412;2022-09-21T16:12:42;100517.24;;;13.79;64.03
67373;BME280;54257;54.496;18.412;2022-09-21T16:15:17;100515.10;;;13.73;64.33
67373;BME280;54257;54.496;18.412;2022-09-21T16:17:55;100515.55;;;13.68;64.34